Pavlo Dovbyk

Chefscout - Dynamo Kyiv
28 Nov 2027
Sonntag
Verarbeitung

Persönlichkeit

Anpassungsfähigkeit (4) Ehrgeiz (10) Kontroverse (19) Loyalität (11) Druck (19) Professionalität (12) Fairness (10) Temperament (3)

Profil

Trainerstil Demokratisch
Lizenz Nationale A
Entschlossenheit 9
Menschenführung 10
Motivation 15
Disziplin 6
Arbeitszufriedenheit
100%
Ermüdung
0%
Rolle Chefscout
Gehalt 52.9K p/W
Vertrag 14.03.2028

Leistung

Verhalten Gut
Trainingseffektivität
52%
Spielerentwicklung
35%
Verletzungsprävention
30%
Taktische Umsetzung
50%

Aktuell beobachtet

138
Spieler Verein Status Fähigkeit Vertrauen Beobachtet Zuletzt beobachtet Letzte Stimme
Ignacio Russo Tigre Aktiv 128 / 121 40% 2 07.09.2027 -
Javi Puado Espanyol Aktiv 146 / 151 40% 1 07.09.2027 -
Juan Manuel Gutiérrez Defensa y Justicia Aktiv 124 / 126 40% 3 06.09.2027 -
Emersonn Ipswich Town Aktiv 135 / 132 40% 1 06.09.2027 -
Gonzalo Plata River Plate Aktiv 133 / 138 40% 2 05.09.2027 -
Patson Daka Leicester City Aktiv 130 / 130 40% 1 05.09.2027 -
Haji Wright Coventry City Aktiv 135 / 138 40% 2 04.09.2027 -
Elijah Adebayo Luton Town Aktiv 133 / 130 40% 2 04.09.2027 -
Exequiel Zeballos Boca Juniors Aktiv 126 / 137 40% 2 03.09.2027 -
Dwight McNeil Crystal Palace Aktiv 150 / 148 40% 1 03.09.2027 -
Agustín Ruberto River Plate Aktiv 124 / 128 40% 2 02.09.2027 -
Daniel Barrea Godoy Cruz Verloren 122 / 121 40% 3 01.09.2027 -
Tommy Conway Middlesbrough Aktiv 131 / 135 40% 1 31.08.2027 -
Callum O'Hare Sheffield United Aktiv 126 / 136 40% 1 31.08.2027 -
Aune Heggebø West Bromwich Albion Aktiv 126 / 126 40% 1 30.08.2027 -
Lorenzo Lucca Napoli Aktiv 143 / 150 40% 1 28.08.2027 -
Billal Messaoudi JS Kabylie Aktiv 123 / 118 40% 2 27.08.2027 -
Germán Valera Elche Aktiv 133 / 137 40% 1 25.08.2027 -
Yousef Salech Cardiff City Aktiv 131 / 135 40% 1 25.08.2027 -
Edmund Baidoo Borussia Dortmund Aktiv 126 / 134 40% 1 23.08.2027 -
Raúl Lozano Quilmes Verloren 121 / 119 40% 1 21.08.2027 -
Cyriaque Irié SC Freiburg Aktiv 122 / 129 40% 1 21.08.2027 -
Dilan Godoy Vélez Aktiv 103 / 115 40% 1 21.08.2027 -
Tomáš Suslov Hellas Verona Aktiv 136 / 138 40% 1 19.08.2027 -
Santiago Pierotti Lecce Aktiv 138 / 137 40% 1 19.08.2027 -
Antonino Gallo Lecce Aktiv 133 / 135 40% 2 18.08.2027 -
Akor Adams Venezia Aktiv 146 / 140 40% 3 18.08.2027 -
Pontus Almqvist Parma Aktiv 130 / 126 40% 1 18.08.2027 -
Kristian Thorstvedt Sassuolo Aktiv 137 / 138 40% 1 15.08.2027 -
Romano Floriani Mussolini Avellino Aktiv 136 / 129 40% 1 15.08.2027 -
Isma Ruiz Córdoba Aktiv 143 / 136 40% 2 13.08.2027 -
Amin Sarr Hellas Verona Aktiv 141 / 129 40% 1 13.08.2027 -
Riccardo Marchizza Frosinone Aktiv 133 / 126 40% 1 12.08.2027 -
Thierry Rendall Correia Venezia Aktiv 139 / 140 40% 1 11.08.2027 -
Ilias Akhomach Villarreal Aktiv 151 / 153 40% 1 11.08.2027 -
Javi Martínez Eibar Aktiv 138 / 127 40% 4 10.08.2027 -
Mateu Morey Mallorca Aktiv 132 / 141 40% 1 10.08.2027 -
Todd Cantwell Blackburn Rovers Aktiv 142 / 127 40% 2 08.08.2027 -
Ethan Williams Peterborough United Aktiv 118 / 125 40% 1 08.08.2027 -
Jason Knight Bristol City Aktiv 129 / 129 40% 2 05.08.2027 -
Aidomo Emakhu Oxford United Aktiv 122 / 121 40% 3 05.08.2027 -
Callum Lang Preston Aktiv 129 / 117 40% 2 02.08.2027 -
Imrân Louza Watford Aktiv 133 / 139 40% 1 01.08.2027 -
Kristoffer Lund Birmingham Aktiv 130 / 138 40% 1 01.08.2027 -
Dany Mota Monza Aktiv 146 / 135 40% 1 01.08.2027 -
Sam Greenwood Bristol City Aktiv 118 / 131 40% 1 01.08.2027 -
Luca Moro Padova Aktiv 121 / 125 40% 1 31.07.2027 -
Aaron Connolly Leyton Orient Aktiv 126 / 126 40% 4 30.07.2027 -
Konan N'Dri Lecce Aktiv 127 / 131 40% 1 30.07.2027 -
Joel Bagan Cardiff City Aktiv 113 / 119 40% 1 29.07.2027 -
Stanley Mills Oxford United Aktiv 124 / 122 40% 3 27.07.2027 -
Haissem Hassan Bloemfontein Celtic Aktiv 153 / 133 40% 3 27.07.2027 -
David Okereke Cremonese Aktiv 136 / 120 40% 1 27.07.2027 -
Francisco Machis Atletico Venezuela Aktiv 125 / 123 40% 2 26.07.2027 -
Tijjani Noslin Lazio Aktiv 140 / 135 40% 1 24.07.2027 -
Richard Koné Queens Park Rangers Aktiv 130 / 129 40% 1 22.07.2027 -
Mikey Johnston West Bromwich Albion Aktiv 129 / 125 40% 1 22.07.2027 -
Sidiki Chérif Coventry City Aktiv 140 / 135 40% 1 21.07.2027 -
Pedro Mendes Modena Aktiv 130 / 127 40% 1 21.07.2027 -
Lorenzo Colombo Genoa Aktiv 138 / 141 40% 1 20.07.2027 -
Michael Baidoo Plymouth Argyle Aktiv 137 / 135 40% 2 17.07.2027 -
Rocco Vata Watford Aktiv 118 / 131 40% 2 16.07.2027 -
Stiven Shpendi Empoli Aktiv 123 / 124 40% 3 16.07.2027 -
Myles Peart-Harris Bristol Rovers Aktiv 134 / 124 40% 3 16.07.2027 -
Bae Jun-Ho Stoke City Aktiv 135 / 127 40% 1 16.07.2027 -
Kieran Dowell Hull City Aktiv 120 / 120 40% 2 13.07.2027 -
Brodie Spencer Oxford United Aktiv 124 / 123 40% 1 13.07.2027 -
Mark Sykes Millwall Aktiv 123 / 126 40% 1 11.07.2027 -
Lewis Bate Stockport County Aktiv 116 / 126 40% 1 11.07.2027 -
Jay Stansfield Birmingham Aktiv 135 / 132 40% 1 10.07.2027 -
Tomi Horvat Bristol City Aktiv 124 / 125 40% 1 10.07.2027 -
Marcus McGuane Huddersfield Town Aktiv 120 / 124 40% 1 08.07.2027 -
Alfie Doughty Millwall Aktiv 133 / 128 40% 1 07.07.2027 -
Jack Diamond Stockport County Aktiv 129 / 119 40% 1 06.07.2027 -
Diego Livyi Bereh Aktiv 102 / 107 62% 1 05.07.2027 Befürworten
Jayden Nelson Bolton Wanderers Aktiv 122 / 115 40% 2 04.07.2027 -
Josh Edwards Charlton Athletic Aktiv 121 / 123 40% 1 02.07.2027 -
Marc Bola Watford Aktiv 128 / 121 40% 2 29.06.2027 -
Jacques Ekomié Wrexham Aktiv 125 / 128 40% 1 29.06.2027 -
Cameron Pring Bristol City Aktiv 138 / 130 40% 1 28.06.2027 -
Ali Youssef Apollon Aktiv 123 / 122 40% 2 23.06.2027 -
Jérémy Le Douaron Palermo Aktiv 133 / 127 40% 1 23.06.2027 -
Mathias Kvistgaarden Norwich City Aktiv 115 / 122 40% 1 21.06.2027 -
Sam Bell Bristol City Aktiv 122 / 118 40% 1 19.06.2027 -
Ryan Oné Sheffield United Aktiv 115 / 119 40% 1 19.06.2027 -
Daryl Dike West Bromwich Albion Aktiv 117 / 119 40% 1 19.06.2027 -
Scott Twine Bristol City Aktiv 124 / 120 40% 1 17.06.2027 -
Sonny Carey Charlton Athletic Aktiv 121 / 119 40% 2 16.06.2027 -
Ross McCrorie Bristol City Aktiv 119 / 124 40% 1 16.06.2027 -
Roman Vantukh LNZ Aktiv 112 / 105 40% 2 23.02.2027 -
Jorge Salinas Racing Santander Aktiv 130 / 126 40% 1 23.02.2027 -
Fawaaz Basadien Mamelodi Sundowns Aktiv 131 / 116 40% 1 22.02.2027 -
Relebohile Mofokeng Orlando Pirates Aktiv 125 / 130 40% 2 21.02.2027 -
Moha Karpaty Aktiv 115 / 113 40% 2 21.02.2027 -
Casper De Norre Millwall Aktiv 127 / 117 40% 1 21.02.2027 -
Amir Hossein Hosseinzadeh Tractor Abgelehnt 136 / 122 40% 1 20.02.2027 Mehr Infos nötig
Luther Lorch Free State Stars Aktiv 115 / 120 40% 2 17.02.2027 -
Pau Casadesús Granada Aktiv 113 / 122 40% 1 15.02.2027 -
Renato Júnior Al Wasl Aktiv 110 / 121 40% 1 15.02.2027 -
Morlaye Sylla Damac Aktiv 119 / 134 40% 2 13.02.2027 -
Maicon Levski Aktiv 128 / 121 40% 1 13.02.2027 -
Fashion Sakala Al-Fayha Aktiv 136 / 117 40% 1 12.02.2027 -
Giuseppe Di Serio Spezia Aktiv 125 / 118 40% 1 12.02.2027 -
Morgan Erasmus Ajax Cape Town Aktiv 106 / 118 40% 2 09.02.2027 -
Hugo Moura Al-Fayha Aktiv 112 / 122 40% 1 09.02.2027 -
Joel Andersson Ludogorets Aktiv 121 / 127 40% 1 07.02.2027 -
Mamadou Coulibaly Al Jazira Aktiv 117 / 119 40% 1 04.02.2027 -
Jaime Seoane Al-Faisaly Aktiv 129 / 137 40% 1 03.02.2027 -
Bohdan Mykhailichenko Polissia Aktiv 112 / 115 40% 2 02.02.2027 -
Filip Kaloč Ludogorets Aktiv 126 / 122 40% 1 02.02.2027 -
Ilir Krasniqi Polissia Aktiv 125 / 118 40% 2 01.02.2027 -
Petro Stasiuk Bukovyna Aktiv 91 / 104 62% 1 31.01.2027 Befürworten
Aldair Faustino Levski Aktiv 116 / 118 40% 1 30.01.2027 -
Oleksandr Yatsyk Metalist Aktiv 111 / 114 40% 1 29.01.2027 -
Terry Devlin Portsmouth Aktiv 122 / 124 40% 1 29.01.2027 -
Xeber Alkain Karpaty Aktiv 127 / 127 40% 1 29.01.2027 -
Nicolás Arévalo Metalist Aktiv 125 / 123 40% 1 27.01.2027 -
Vitalii Dakhnovskyi Bukovyna Aktiv 100 / 105 62% 1 26.01.2027 Befürworten
Morgan Manyama SuperSport United Aktiv 105 / 126 40% 1 26.01.2027 -
Soufiane Rahimi Al Ain Aktiv 148 / 143 40% 1 26.01.2027 -
Kelvin Yeboah Minnesota United FC Aktiv 110 / 116 40% 3 23.08.2026 -
Antony Portland Timbers Aktiv 118 / 140 40% 1 20.08.2026 -
Morgan Guilavogui Real Salt Lake Aktiv 136 / 120 40% 1 19.08.2026 -
Facundo Torres Austin FC Aktiv 118 / 143 40% 1 18.08.2026 -
Cheikh Sabaly Vancouver Whitecaps Aktiv 126 / 118 40% 1 18.08.2026 -
Riqui Puig LA Galaxy Aktiv 116 / 127 40% 1 16.08.2026 -
David Schnegg Charlotte Football Club Aktiv 121 / 124 40% 2 14.08.2026 -
Hannes Wolf New York City Aktiv 123 / 124 40% 1 14.08.2026 -
Gabriel Pirani San Diego Football Club Aktiv 138 / 136 40% 1 12.08.2026 -
Lucas Sanabria LA Galaxy Aktiv 136 / 126 40% 2 11.08.2026 -
Lewis Morgan San Diego Football Club Aktiv 127 / 131 40% 1 11.08.2026 -
Paxten Aaronson Colorado Rapids Aktiv 146 / 129 40% 1 11.08.2026 -
David Brekalo Orlando City Aktiv 115 / 119 40% 1 11.08.2026 -
Evander FC Cincinnati Aktiv 138 / 140 40% 2 09.08.2026 -
André Luiz Sporting Kansas City Aktiv 127 / 118 40% 2 07.08.2026 -
Brais Méndez Columbus Crew Aktiv 162 / 155 40% 1 06.08.2026 -
Allan Saint-Maximin Charlotte Football Club Aktiv 142 / 132 40% 1 06.08.2026 -
Pedro de la Vega Seattle Sounders Aktiv 125 / 128 40% 1 04.08.2026 -